Werte bis 5 Uhr SommerzeitDiagramme Harleshausen: Tagesdaten MonatsdatenCSV-Datei: Harleshausen19.csv

Wetterdaten 2019 Station: Harleshausen
Temperaturen in °C relative Nieder- Global- Wind Wind Wind- Sonnen-
Datum Boden Boden Luft Luft Luft Luft Feuchte schlag strahlung max richtung schein
20 cm 5 cm 20 cm 2 m 2 m max 2 m min % mm W/m2*d m/s m/s ° h

19.08.2019 19,4 19,3 18,7 17,7 24,3 12,2 63 0,1 4174 0,8 3,2 --- ---
18.08.2019 19,4 20,0 19,3 18,9 25,5 14,3 84 2,8 1830 0,9 4,0 --- ---
17.08.2019 19,1 19,3 18,6 18,3 22,9 13,4 71 0,3 2279 1,0 3,3 --- ---
16.08.2019 19,1 19,4 18,2 17,4 23,8 11,7 67 0,1 3462 0,6 2,1 --- ---
15.08.2019 19,1 19,1 16,9 16,3 22,2 13,3 80 11,2 2476 0,8 2,7 --- ---
14.08.2019 19,1 18,8 17,1 15,8 23,1 9,4 61 0,0 3517 0,5 2,6 --- ---
13.08.2019 19,7 19,1 15,9 15,1 20,5 11,9 70 0,6 2555 0,7 2,3 --- ---
12.08.2019 20,2 20,3 18,8 17,5 24,4 12,0 69 3,4 3920 0,9 2,6 --- ---
11.08.2019 20,4 20,6 20,2 19,7 26,3 13,0 52 0,0 3865 0,8 3,0 --- ---
10.08.2019 20,6 19,4 21,6 21,3 25,6 17,0 61 0,0 4154 1,3 4,0 --- ---
09.08.2019 20,4 20,8 20,5 20,0 26,9 12,4 76 17,7 2121 0,4 1,8 --- ---
08.08.2019 20,4 20,8 20,3 19,4 26,6 13,1 62 0,0 4314 0,9 3,1 --- ---
07.08.2019 20,8 21,2 20,7 20,3 24,7 16,1 66 0,0 2463 0,8 2,3 --- ---
06.08.2019 20,9 21,3 21,0 20,6 26,0 14,4 66 0,0 2523 0,7 2,4 --- ---
05.08.2019 20,9 21,5 20,8 19,9 28,0 15,6 72 0,3 2767 0,4 1,9 --- ---
04.08.2019 20,7 21,2 20,7 19,0 26,6 12,2 68 0,0 3768 0,2 1,4 --- ---
03.08.2019 20,9 21,1 19,1 17,7 24,8 13,9 77 0,1 3121 0,3 1,8 --- ---
02.08.2019 21,1 21,4 19,8 18,5 24,8 14,3 74 21,1 3000 0,3 2,1 --- ---
01.08.2019 21,5 18,3 19,9 18,7 26,1 12,2 62 0,0 3015 0,4 2,0 --- ---
31.07.2019 22,2 22,8 20,9 19,9 26,7 13,7 69 5,1 3526 0,4 2,3 --- ---
30.07.2019 22,0 23,2 24,4 22,8 31,0 15,4 63 1,7 4459 0,5 2,0 --- ---
29.07.2019 22,2 22,7 20,3 19,6 24,0 16,5 78 1,8 2041 0,4 1,4 --- ---
28.07.2019 22,5 23,4 23,4 22,5 29,6 18,2 64 1,6 2839 0,3 1,8 --- ---
27.07.2019 22,8 24,3 26,1 24,6 31,8 17,0 50 0,0 5155 0,7 2,2 --- ---
26.07.2019 22,8 24,9 28,1 27,0 35,2 19,1 47 0,0 5159 0,6 1,9 --- ---
25.07.2019 22,3 24,7 28,6 27,7 38,1 17,4 54 0,0 5127 0,3 1,3 --- ---
24.07.2019 21,4 23,8 27,7 26,5 36,7 15,7 55 0,0 5398 0,3 1,9 --- ---
23.07.2019 20,5 22,5 25,7 23,8 33,7 13,6 58 0,0 5505 0,2 1,1 --- ---
22.07.2019 19,9 21,0 21,8 20,4 29,6 11,5 63 0,0 4295 0,5 2,7 --- ---
21.07.2019 19,6 21,0 21,5 20,0 26,6 14,1 67 0,1 4498 0,4 2,1 --- ---
20.07.2019 19,2 20,2 20,9 19,7 30,5 11,9 74 15,9 3589 0,6 3,7 --- ---
19.07.2019 18,8 19,9 19,4 18,4 24,6 13,9 78 2,5 3037 0,4 2,6 --- ---
18.07.2019 17,7 18,8 20,2 18,4 27,4 9,3 65 0,0 4396 0,3 1,9 --- ---
17.07.2019 17,4 17,4 15,6 14,8 18,7 10,1 77 0,0 1506 0,2 1,2 --- ---
16.07.2019 17,3 16,8 14,2 13,3 17,0 7,6 79 0,0 1510 0,3 1,7 --- ---
15.07.2019 18,0 17,5 14,1 13,4 16,1 8,4 77 0,0 1193 0,3 1,3 --- ---
14.07.2019 18,5 18,0 15,0 14,0 16,6 12,6 79 0,0 1463 0,3 1,3 --- ---
13.07.2019 18,7 18,5 15,8 15,1 17,8 12,7 90 6,6 1550 0,3 1,5 --- ---
12.07.2019 19,2 19,1 16,8 15,9 21,8 12,5 88 14,3 2110 0,3 1,7 --- ---
11.07.2019 19,6 19,4 16,0 15,2 18,9 12,3 87 8,3 1667 0,4 1,7 --- ---
10.07.2019 19,1 19,9 18,9 16,2 24,7 8,1 64 0,0 4953 0,3 1,5 --- ---
09.07.2019 19,2 18,5 14,2 13,0 17,9 9,3 75 0,1 2050 0,4 1,7 --- ---
08.07.2019 20,0 19,3 14,7 13,6 18,7 8,5 70 0,1 2278 0,5 2,1 --- ---
07.07.2019 20,9 20,7 16,9 15,2 20,4 12,3 62 0,0 2894 0,5 2,8 --- ---
06.07.2019 21,1 22,0 21,4 19,5 29,6 10,7 64 0,2 4203 0,6 2,2 --- ---
05.07.2019 21,0 21,9 21,9 19,9 27,6 13,4 56 0,0 4867 0,6 2,4 --- ---
04.07.2019 20,6 21,0 19,5 16,4 24,8 6,4 57 0,0 5557 0,3 1,9 --- ---
03.07.2019 21,1 20,9 17,8 15,4 22,9 8,6 60 0,0 4104 0,4 1,8 --- ---
02.07.2019 22,0 22,1 18,8 16,7 23,6 10,4 61 0,0 4158 0,4 2,0 --- ---
01.07.2019 22,7 24,1 23,9 22,0 29,3 15,2 54 0,0 5241 0,5 2,3 --- ---
30.06.2019 22,2 24,1 27,2 25,4 37,7 12,8 55 0,0 5781 0,6 2,5 --- ---
29.06.2019 21,6 23,1 24,6 22,2 33,6 9,9 55 0,0 6222 0,3 1,6 --- ---
28.06.2019 21,8 22,7 21,6 18,4 26,5 11,9 62 0,0 6171 0,4 1,3 --- ---
27.06.2019 22,4 23,7 22,9 19,6 25,7 13,9 61 0,0 6312 0,5 1,8 --- ---
26.06.2019 22,1 24,8 28,9 26,8 34,3 19,2 60 0,0 5664 0,4 1,8 --- ---
25.06.2019 21,2 23,3 27,0 25,7 34,2 15,3 54 0,0 5848 0,5 2,1 --- ---
24.06.2019 20,6 22,5 25,2 23,2 30,0 14,8 55 0,0 5781 0,6 2,4 --- ---
23.06.2019 20,1 21,6 24,0 21,6 27,8 14,0 54 0,0 6110 0,6 2,1 --- ---
22.06.2019 19,7 20,5 20,7 18,6 25,2 11,1 64 0,0 4352 0,5 1,9 --- ---
21.06.2019 20,0 20,7 19,3 17,5 24,2 11,4 69 0,1 3553 0,3 1,3 --- ---
20.06.2019 20,4 21,6 20,5 18,9 26,2 15,5 77 5,6 3508 0,4 2,6 --- ---
19.06.2019 20,2 22,5 24,9 22,9 31,6 15,0 64 11,1 5657 0,7 2,6 --- ---
18.06.2019 19,3 21,3 24,1 22,2 30,1 13,1 60 0,0 5182 0,4 2,0 --- ---
17.06.2019 18,8 20,1 21,2 19,1 27,1 10,6 66 0,0 4629 0,3 1,5 --- ---
16.06.2019 18,9 19,4 17,6 16,7 22,3 12,4 78 0,6 2151 0,4 1,5 --- ---
15.06.2019 19,0 20,8 22,2 20,5 26,0 13,7 63 0,0 5344 0,8 3,6 --- ---
14.06.2019 18,2 19,5 21,2 19,6 28,2 8,5 62 0,0 4574 0,7 3,0 --- ---
13.06.2019 17,9 18,8 19,1 17,2 23,8 9,8 61 0,0 5998 1,0 3,5 --- ---
12.06.2019 18,4 18,6 16,1 15,5 18,6 10,6 87 6,9 1416 0,4 2,0 --- ---
11.06.2019 18,6 19,7 19,3 17,7 23,9 14,8 78 8,9 3035 0,4 2,2 --- ---
10.06.2019 18,3 19,9 21,2 19,5 26,0 13,9 65 0,0 4545 0,8 2,4 --- ---
09.06.2019 17,5 18,4 19,5 17,1 24,0 8,3 57 0,0 4888 0,4 1,5 --- ---
08.06.2019 18,0 18,2 16,4 15,3 20,0 11,4 55 0,3 4624 1,7 4,6 --- ---
07.06.2019 17,9 19,1 19,3 16,4 25,2 8,2 71 4,5 5462 0,7 4,2 --- ---
06.06.2019 18,8 18,9 15,8 15,5 20,0 9,7 76 0,7 1068 0,5 2,5 --- ---
05.06.2019 18,9 21,4 25,1 23,5 30,4 16,3 62 0,0 4215 0,3 1,6 --- ---
04.06.2019 18,0 20,2 22,6 20,9 29,2 14,1 69 0,1 4826 0,5 1,9 --- ---
03.06.2019 17,7 19,1 20,5 19,2 30,1 13,1 76 8,0 3085 0,4 2,7 --- ---
02.06.2019 16,9 19,0 23,8 21,9 30,8 11,9 59 0,0 5781 0,7 2,8 --- ---
01.06.2019 16,0 17,7 21,3 19,3 27,4 10,0 67 0,0 4855 0,4 1,9 --- ---
31.05.2019 15,3 16,5 19,4 18,2 25,1 11,9 71 0,0 3381 0,5 1,8 --- ---
30.05.2019 14,8 15,3 15,4 14,7 19,7 6,3 65 0,0 2591 0,8 3,1 --- ---
29.05.2019 14,9 15,8 15,2 12,2 19,2 6,7 64 0,0 5059 0,4 1,5 --- ---
28.05.2019 15,1 15,4 13,4 11,8 17,1 9,3 86 5,6 2024 0,3 1,6 --- ---
27.05.2019 15,3 16,1 15,9 15,2 18,9 10,1 76 3,6 1632 0,4 1,6 --- ---
26.05.2019 14,8 15,8 17,5 15,5 23,8 5,5 61 0,0 4163 0,9 2,5 --- ---
25.05.2019 14,9 15,7 15,5 13,1 18,9 7,8 70 0,0 3809 0,4 1,6 --- ---
24.05.2019 14,5 15,6 17,5 16,0 24,0 7,1 62 0,0 3930 0,3 1,4 --- ---
23.05.2019 14,2 12,6 15,9 13,7 22,1 4,7 68 0,0 4234 0,4 1,8 --- ---
22.05.2019 14,4 14,9 13,5 12,2 17,6 6,9 76 0,0 2237 0,6 2,6 --- ---
21.05.2019 14,4 15,1 14,4 13,6 16,4 12,4 89 23,4 1745 0,8 1,9 --- ---
20.05.2019 14,2 15,4 16,9 15,3 21,1 11,7 82 27,8 3373 0,7 2,5 --- ---
19.05.2019 13,6 15,0 17,8 16,5 23,5 8,9 65 0,0 3642 0,4 1,7 --- ---
18.05.2019 12,5 14,0 17,6 15,2 24,4 5,3 64 0,0 5599 0,4 1,4 --- ---
17.05.2019 11,8 12,1 11,2 10,4 15,5 6,9 80 0,1 1676 0,4 1,7 --- ---
16.05.2019 12,3 12,1 9,3 8,0 9,5 7,1 77 8,5 963 0,4 1,2 --- ---
15.05.2019 12,1 12,7 11,9 8,7 14,9 0,3 55 0,0 5050 0,6 2,7 --- ---
14.05.2019 12,3 12,7 11,2 9,1 14,8 2,8 56 0,0 4423 0,6 2,3 --- ---
13.05.2019 12,0 12,1 12,6 9,2 16,6 0,5 55 0,0 5795 0,4 2,0 --- ---
12.05.2019 11,6 11,1 11,2 8,7 14,9 4,7 63 0,0 4787 0,6 2,2 --- ---
11.05.2019 11,6 11,5 8,9 7,8 9,8 5,5 96 11,6 999 0,4 1,2 --- ---
10.05.2019 11,8 12,2 11,5 10,6 16,0 6,8 76 3,0 2304 0,8 2,9 --- ---
09.05.2019 11,4 11,9 12,0 11,0 15,3 7,5 75 0,6 2708 1,1 2,8 --- ---
08.05.2019 11,1 10,6 9,2 8,4 12,4 1,7 84 7,1 1578 0,6 2,3 --- ---
07.05.2019 11,2 8,7 8,5 7,6 11,4 3,9 73 3,9 2052 0,3 1,8 --- ---
06.05.2019 11,5 7,9 7,6 6,6 10,6 1,2 66 0,0 2166 0,6 2,3 --- ---
05.05.2019 11,7 11,7 8,8 6,1 13,1 -1,3 69 0,4 4083 0,4 1,9 --- ---
04.05.2019 12,3 12,0 6,9 5,0 10,8 1,5 77 6,4 3047 0,5 2,5 --- ---
03.05.2019 13,0 13,1 9,6 8,3 12,6 4,9 65 0,8 2518 0,6 2,2 --- ---
02.05.2019 13,0 14,0 14,3 11,8 18,4 5,6 69 0,2 4733 0,6 2,3 --- ---
01.05.2019 12,6 13,6 15,0 12,5 18,9 6,3 68 0,0 4543 0,4 1,7 --- ---
30.04.2019 11,8 12,7 14,5 11,9 18,3 6,3 67 0,0 5028 0,6 1,8 --- ---
29.04.2019 11,6 11,4 8,5 7,3 12,6 1,1 87 1,0 1789 0,4 1,7 --- ---
28.04.2019 11,9 12,2 9,8 8,0 14,2 3,0 80 0,4 3348 0,7 2,5 --- ---
27.04.2019 12,2 12,1 9,2 8,7 13,7 6,3 90 11,3 1771 1,0 3,0 --- ---
26.04.2019 13,0 13,0 10,7 10,6 13,9 8,6 87 6,4 863 0,4 2,1 --- ---
25.04.2019 13,2 14,2 17,0 16,0 24,2 7,8 59 0,0 3780 0,9 2,4 --- ---
24.04.2019 12,7 14,4 20,0 18,5 27,0 10,4 57 0,0 4301 0,9 3,7 --- ---
23.04.2019 12,0 12,8 15,2 14,3 20,7 6,0 60 0,0 4363 1,3 4,4 --- ---
22.04.2019 11,9 12,9 16,3 15,0 22,2 7,2 49 0,0 4664 1,3 3,8 --- ---
21.04.2019 11,5 12,7 16,2 14,8 24,2 4,6 53 0,0 4641 0,6 2,9 --- ---
20.04.2019 11,1 12,4 16,9 15,6 24,2 7,2 49 0,0 4595 0,8 2,5 --- ---
19.04.2019 10,5 11,6 16,1 15,2 23,9 6,1 50 0,0 4641 0,9 3,4 --- ---
18.04.2019 9,9 10,9 14,5 13,8 20,5 6,1 51 0,0 4527 1,2 4,0 --- ---
17.04.2019 9,3 10,2 13,6 12,8 20,8 4,1 47 0,0 4313 0,7 2,9 --- ---
16.04.2019 8,6 9,2 11,6 10,5 19,1 2,0 51 0,0 4363 0,8 2,8 --- ---
15.04.2019 8,0 8,5 10,4 8,7 15,4 2,6 59 0,0 4484 1,0 3,3 --- ---
14.04.2019 7,6 7,2 4,5 3,0 7,4 -1,6 83 0,2 2263 0,9 2,6 --- ---
13.04.2019 8,0 7,4 3,1 1,9 5,0 -0,1 84 0,4 1694 0,7 2,3 --- ---
12.04.2019 8,6 8,0 3,8 2,8 4,9 0,9 67 0,4 1514 1,2 2,8 --- ---
11.04.2019 9,2 8,9 6,5 4,7 10,2 -0,7 54 0,0 4067 1,3 3,7 --- ---
10.04.2019 9,8 9,8 7,8 6,7 11,5 2,6 57 0,0 3814 1,3 3,2 --- ---
09.04.2019 10,0 10,6 11,3 10,0 14,8 6,0 68 0,0 3840 1,2 2,9 --- ---
08.04.2019 9,7 10,5 13,2 12,9 20,9 5,7 59 0,0 3064 0,6 2,5 --- ---
07.04.2019 9,3 10,1 12,9 12,6 19,8 6,3 62 0,0 3447 0,8 2,7 --- ---
06.04.2019 8,5 9,5 13,4 12,4 20,3 6,7 67 0,0 3740 0,8 3,3 --- ---
05.04.2019 8,2 8,1 6,9 6,5 8,1 5,0 91 0,1 500 0,5 1,7 --- ---
04.04.2019 8,4 8,3 6,4 5,8 7,5 4,3 92 0,4 587 0,6 2,2 --- ---
03.04.2019 8,5 8,9 9,4 9,7 13,8 5,0 78 10,2 1612 0,8 5,3 --- ---
02.04.2019 8,0 8,2 9,7 9,7 17,8 -0,6 63 0,6 2612 0,8 4,8 --- ---
01.04.2019 8,1 8,1 7,7 6,9 13,6 -0,5 56 0,0 3990 1,0 3,3 --- ---
31.03.2019 8,4 8,6 7,6 7,2 11,8 2,9 73 0,0 1886 0,9 3,1 --- ---
30.03.2019 8,2 8,7 10,5 10,3 20,0 0,6 65 0,0 3486 0,7 3,3 --- ---
29.03.2019 8,0 8,8 12,1 10,9 18,4 3,8 67 0,0 3729 0,4 2,1 --- ---
28.03.2019 7,5 8,2 10,0 9,3 13,1 6,1 71 0,0 1894 0,6 2,8 --- ---
27.03.2019 6,9 7,1 7,7 6,7 11,7 0,3 72 0,0 2355 0,6 2,3 --- ---
26.03.2019 6,9 6,8 5,3 5,4 8,7 3,8 79 0,3 1117 0,9 2,7 --- ---
25.03.2019 7,1 7,0 4,8 4,7 8,7 2,4 78 6,0 2428 1,3 3,6 --- ---
24.03.2019 7,3 7,7 8,2 7,7 13,5 4,1 67 0,0 1772 0,8 2,2 --- ---
23.03.2019 7,0 7,3 7,9 6,8 11,1 2,1 84 0,0 2539 0,8 4,0 --- ---
22.03.2019 6,5 7,1 11,1 10,6 21,0 2,1 70 0,0 3272 0,4 1,9 --- ---
21.03.2019 5,9 6,8 9,1 8,3 17,8 -0,1 71 0,0 3253 0,4 2,0 --- ---
20.03.2019 5,4 5,9 6,2 5,4 14,1 -3,6 72 0,0 2923 0,5 2,5 --- ---
19.03.2019 5,6 5,4 3,4 2,9 9,0 -1,7 73 0,0 1990 0,5 1,9 --- ---
18.03.2019 6,0 4,4 4,1 4,4 9,9 0,8 70 0,5 1895 1,2 3,5 --- ---
17.03.2019 6,4 0,0 6,1 6,9 8,9 3,1 74 4,0 1004 1,6 3,7 --- ---
16.03.2019 6,1 5,9 7,8 8,4 11,3 4,9 75 1,8 1042 1,6 4,6 --- ---
15.03.2019 5,6 5,7 6,9 7,7 12,8 5,6 81 10,5 899 1,6 4,4 --- ---
14.03.2019 5,5 2,0 4,6 5,6 7,7 4,3 83 8,2 637 2,2 5,3 --- ---
13.03.2019 5,6 2,2 5,0 5,5 8,8 3,8 72 2,3 1303 2,3 5,4 --- ---
12.03.2019 5,6 2,6 5,3 5,5 8,8 1,9 66 0,0 1684 2,1 4,8 --- ---
11.03.2019 6,0 5,3 2,6 3,1 5,4 1,0 82 5,5 1287 1,9 5,3 --- ---
10.03.2019 6,4 6,3 5,6 6,1 11,3 2,1 80 13,0 1154 1,9 8,9 --- ---
09.03.2019 6,3 6,4 7,5 7,9 13,1 5,5 72 9,1 1843 2,5 5,8 --- ---
08.03.2019 6,3 6,3 6,8 7,4 9,9 6,0 66 0,3 984 2,0 5,2 --- ---
07.03.2019 6,3 6,7 9,5 10,2 12,9 6,3 62 1,1 1704 2,5 5,9 --- ---
06.03.2019 5,7 5,8 7,9 8,3 12,7 1,6 71 0,1 1625 1,6 4,7 --- ---
05.03.2019 5,9 5,7 4,6 5,2 8,9 1,9 74 0,9 1566 1,8 4,7 --- ---
04.03.2019 6,1 6,5 7,8 8,6 12,4 3,9 68 6,6 1425 2,6 6,8 --- ---
03.03.2019 5,7 6,1 8,6 9,2 11,3 7,2 80 0,5 847 1,8 3,7 --- ---
02.03.2019 5,4 5,5 5,4 5,7 8,5 3,2 83 0,4 687 1,0 2,6 --- ---
01.03.2019 5,2 5,6 6,9 7,1 10,9 3,4 89 1,1 697 0,7 2,3 --- ---
28.02.2019 4,3 4,4 7,8 8,3 15,7 -0,5 66 0,0 1807 0,8 3,4 --- ---
27.02.2019 4,1 3,8 5,4 5,9 17,9 -3,6 59 0,0 2178 0,4 1,7 --- ---
26.02.2019 4,1 4,0 5,5 5,8 18,1 -2,2 63 0,0 2093 0,3 1,4 --- ---
25.02.2019 4,0 3,8 5,1 5,4 17,1 -2,7 65 0,0 1993 0,3 1,1 --- ---
24.02.2019 4,2 3,7 3,6 3,6 14,2 -3,7 60 0,0 1999 0,3 1,6 --- ---
23.02.2019 4,7 4,4 3,0 3,2 9,8 -1,7 66 0,0 1786 0,5 2,0 --- ---
22.02.2019 4,8 5,3 7,1 7,6 9,6 3,1 85 0,0 403 1,0 2,8 --- ---
21.02.2019 4,2 4,4 6,4 7,2 11,6 2,7 79 0,2 974 0,6 2,2 --- ---
20.02.2019 3,8 4,0 5,5 6,0 10,2 2,5 74 0,0 1206 0,8 2,4 --- ---
19.02.2019 3,5 3,4 5,2 6,2 11,9 1,5 66 0,0 1180 0,9 3,9 --- ---
18.02.2019 3,3 3,0 4,4 5,5 14,0 -2,3 68 0,0 1775 0,8 2,9 --- ---
17.02.2019 3,2 2,2 4,7 5,5 15,3 -2,6 68 0,0 1669 0,6 2,4 --- ---
16.02.2019 3,1 2,5 4,9 6,1 13,6 0,9 64 0,0 1742 0,9 2,6 --- ---
15.02.2019 3,2 2,5 3,1 3,8 14,3 -3,3 74 0,0 1680 0,4 1,9 --- ---
14.02.2019 3,5 3,2 2,5 2,9 11,3 -1,5 78 0,0 1371 0,4 1,6 --- ---
13.02.2019 3,6 3,1 3,8 4,0 8,6 1,5 78 0,0 1189 1,1 2,6 --- ---
12.02.2019 3,5 3,3 3,4 3,9 7,1 0,7 71 0,0 915 0,9 2,3 --- ---
11.02.2019 3,7 0,5 2,7 3,6 5,7 2,1 79 4,7 701 1,3 3,4 --- ---
10.02.2019 3,4 3,6 5,2 6,2 8,5 2,8 85 17,3 237 2,2 5,0 --- ---
09.02.2019 2,9 2,7 6,3 7,3 9,6 5,2 66 1,6 814 2,5 5,3 --- ---
08.02.2019 2,2 2,1 4,4 5,2 7,3 2,1 81 0,0 506 2,0 4,5 --- ---
07.02.2019 1,9 1,5 1,7 2,1 3,8 0,8 79 0,0 698 1,4 4,5 --- ---
06.02.2019 1,8 0,6 1,1 1,8 5,6 -1,7 76 0,0 1096 1,4 3,7 --- ---
05.02.2019 1,8 1,5 1,5 2,0 5,1 -0,7 73 0,0 619 1,1 2,8 --- ---
04.02.2019 1,7 1,0 -0,3 0,4 4,0 -4,2 79 0,0 1018 1,1 3,6 --- ---
03.02.2019 1,8 1,5 0,4 1,0 2,4 -1,5 84 0,0 581 1,0 2,7 --- ---
02.02.2019 1,5 1,2 1,1 1,3 2,7 0,4 93 0,6 260 0,5 1,6 --- ---
01.02.2019 1,3 0,6 0,5 1,1 5,7 -1,9 80 0,0 764 0,7 2,4 --- ---
31.01.2019 1,3 0,5 0,2 0,6 3,8 -2,6 73 0,0 975 1,0 2,6 --- ---
30.01.2019 1,4 0,5 -1,4 -0,5 1,1 -3,6 80 0,3 354 0,7 2,7 --- ---
29.01.2019 1,4 1,0 0,1 0,8 4,4 -2,8 83 0,3 789 0,6 2,1 --- ---
28.01.2019 1,1 0,4 1,1 1,8 2,9 0,6 90 3,4 323 1,4 3,3 --- ---
27.01.2019 0,9 0,1 3,3 4,1 5,6 2,1 91 3,2 343 1,8 3,6 --- ---
26.01.2019 1,0 -2,9 1,9 2,6 6,3 -0,5 96 9,5 471 1,2 2,7 --- ---
25.01.2019 1,1 0,0 -3,1 -3,3 -0,5 -5,3 82 2,1 507 1,0 2,6 --- ---
24.01.2019 1,2 -0,1 -4,3 -5,2 -3,8 -6,9 82 0,0 416 0,5 1,8 --- ---
23.01.2019 1,3 -4,5 -4,3 -4,3 -2,5 -6,1 78 0,0 329 0,8 2,9 --- ---
22.01.2019 1,5 -5,8 -5,6 -5,5 -3,0 -9,2 86 0,0 311 1,3 3,2 --- ---
21.01.2019 1,7 0,1 -6,4 -6,7 -1,3 -10,8 86 0,0 897 0,3 2,1 --- ---
20.01.2019 2,2 0,5 -4,9 -4,8 1,7 -9,3 79 0,0 867 0,4 1,4 --- ---
19.01.2019 3,0 1,4 -4,2 -4,0 0,8 -6,9 84 0,0 648 0,3 0,8 --- ---
18.01.2019 4,1 3,1 -1,0 -0,5 3,6 -5,2 75 0,1 772 0,5 2,4 --- ---
17.01.2019 4,5 4,0 3,2 3,9 6,7 1,1 75 1,0 452 1,7 3,8 --- ---
16.01.2019 4,5 4,2 3,7 4,2 6,1 2,6 80 0,0 160 1,5 3,1 --- ---
15.01.2019 4,3 3,8 3,3 4,1 6,3 1,5 73 0,0 318 1,3 3,1 --- ---
14.01.2019 4,7 4,3 2,4 3,3 5,8 1,3 75 3,4 678 1,4 3,6 --- ---
13.01.2019 4,6 4,5 5,2 6,1 8,9 4,2 89 15,4 211 1,5 4,6 --- ---
12.01.2019 4,3 4,0 4,1 5,0 5,9 4,3 86 7,0 174 1,2 2,9 --- ---
11.01.2019 4,1 3,3 1,5 1,9 5,7 -0,8 93 1,1 40 0,7 2,4 --- ---
10.01.2019 4,4 3,6 0,1 0,2 0,9 -1,3 79 0,1 271 0,8 2,9 --- ---
09.01.2019 4,9 4,1 1,0 1,5 3,2 0,3 80 2,3 371 1,7 4,1 --- ---
08.01.2019 5,3 5,0 4,2 5,0 6,3 3,0 81 8,2 516 2,1 4,8 --- ---
07.01.2019 5,2 5,0 4,2 4,7 5,9 3,9 87 0,9 270 0,9 2,6 --- ---
06.01.2019 4,9 5,0 5,7 5,9 6,7 4,8 96 7,8 251 0,8 1,9 --- ---
05.01.2019 4,2 4,1 5,5 6,1 7,2 4,6 92 8,7 187 1,3 3,1 --- ---
04.01.2019 3,8 2,8 1,2 2,0 4,8 -2,0 87 0,0 197 0,9 3,0 --- ---
03.01.2019 4,2 2,8 -1,2 -0,6 2,1 -4,3 85 0,0 224 0,4 1,6 --- ---
02.01.2019 5,2 4,3 0,9 2,2 4,3 -0,6 63 0,6 557 1,5 4,6 --- ---
01.01.2019 5,7 5,6 5,1 6,1 8,4 2,3 81 1,3 158 1,3 3,3 --- ---

Mittelwerte (Temperaturen, Strahlung, rel. Feuchte, Wind), Summe (Regen) für 2019
11,6 11,7 11,8 11,1 71 471 2.643 0,8

Landesbetrieb Landwirtschaft Hessen 2009

      Werte bis 5 Uhr SommerzeitCSV-Datei: Harleshausen19.csvDiagramm: Harleshausen